Time;durP1;ratioP1;P1;durP2;ratioP2;P2;SDS_P1;SDS_P2;PMS_P1;PMS_P2;Temp;Humidity;BMP_temperature;BMP_pressure;BME280_temperature;BME280_humidity;BME280_pressure;Samples;Min_cycle;Max_cycle;Signal;HPM_P1;HPM_P2
2024/01/12 00:01:23;;;;;;;1999.90;999.90;;;0.40;99.90;;;;;;4985997;28;20678;-79
2024/01/12 00:03:50;;;;;;;1999.90;999.90;;;0.40;99.90;;;;;;4986287;28;20602;-79
2024/01/12 00:06:15;;;;;;;1999.90;999.90;;;0.40;99.90;;;;;;5005035;28;20045;-80
2024/01/12 00:08:41;;;;;;;1999.90;999.90;;;0.50;99.90;;;;;;4990434;28;20034;-80
2024/01/12 00:11:10;;;;;;;1999.90;999.90;;;0.40;99.90;;;;;;5008766;28;20116;-80
2024/01/12 00:13:37;;;;;;;1999.90;999.90;;;0.40;99.90;;;;;;4973225;28;20506;-80
2024/01/12 00:16:07;;;;;;;1999.90;999.90;;;0.50;99.90;;;;;;4990749;28;20046;-79
2024/01/12 00:18:34;;;;;;;1999.90;999.90;;;0.50;99.90;;;;;;5004827;28;20044;-80
2024/01/12 00:20:59;;;;;;;1999.90;999.90;;;0.50;99.90;;;;;;4988986;28;20125;-79
2024/01/12 00:23:25;;;;;;;1999.90;999.90;;;0.50;99.90;;;;;;5001474;28;20455;-80
2024/01/12 00:25:51;;;;;;;1999.90;999.90;;;0.60;99.90;;;;;;5005461;28;20037;-80
2024/01/12 00:28:16;;;;;;;1999.90;999.90;;;0.60;99.90;;;;;;5005328;28;20038;-80
2024/01/12 00:30:45;;;;;;;1999.90;999.90;;;0.60;99.90;;;;;;5004080;28;20575;-79
2024/01/12 00:33:12;;;;;;;1999.90;999.90;;;0.60;99.90;;;;;;5009345;28;20049;-79
2024/01/12 00:35:37;;;;;;;1999.90;999.90;;;0.60;99.90;;;;;;5004790;28;20042;-80
2024/01/12 00:38:03;;;;;;;1999.90;999.90;;;0.60;99.90;;;;;;5004466;28;20100;-80
2024/01/12 00:40:29;;;;;;;1999.90;999.90;;;0.60;99.90;;;;;;4991694;28;20467;-80
2024/01/12 00:42:54;;;;;;;1999.90;999.90;;;0.60;99.90;;;;;;4986919;28;20049;-80
2024/01/12 00:45:20;;;;;;;1999.90;999.90;;;0.70;99.90;;;;;;4988852;28;20042;-80
2024/01/12 00:47:46;;;;;;;1999.90;999.90;;;0.70;99.90;;;;;;5004623;28;20124;-80
2024/01/12 00:50:11;;;;;;;1999.90;999.90;;;0.70;99.90;;;;;;5004066;28;20093;-80
2024/01/12 00:52:37;;;;;;;1999.90;999.90;;;0.70;99.90;;;;;;4987248;28;20066;-80
2024/01/12 00:55:03;;;;;;;1999.90;999.90;;;0.70;99.90;;;;;;4989915;28;20417;-79
2024/01/12 00:57:28;;;;;;;1999.90;999.90;;;0.70;99.90;;;;;;4989802;28;20086;-81
2024/01/12 00:59:54;;;;;;;1999.90;999.90;;;0.80;99.90;;;;;;5006835;28;20154;-79
2024/01/12 01:02:20;;;;;;;1999.90;999.90;;;1.90;99.90;;;;;;4989642;28;20065;-79
2024/01/12 01:04:45;;;;;;;1999.90;999.90;;;0.80;99.90;;;;;;5002470;28;20069;-79
2024/01/12 01:07:11;;;;;;;1999.90;999.90;;;0.80;99.90;;;;;;4988408;28;20442;-80
2024/01/12 01:09:36;;;;;;;1999.90;999.90;;;1.50;99.90;;;;;;5004130;28;20030;-80
2024/01/12 01:12:02;;;;;;;1999.90;999.90;;;0.90;99.90;;;;;;4989460;28;20034;-80
2024/01/12 01:14:28;;;;;;;1999.90;999.90;;;0.80;99.90;;;;;;4985440;28;20038;-79
2024/01/12 01:16:53;;;;;;;1999.90;999.90;;;0.80;99.90;;;;;;5002876;28;20061;-80
2024/01/12 01:19:20;;;;;;;1999.90;999.90;;;1.30;99.90;;;;;;5003087;28;20518;-79
2024/01/12 01:21:45;;;;;;;1999.90;999.90;;;0.90;99.90;;;;;;4989464;28;20133;-79
2024/01/12 01:24:14;;;;;;;1999.90;999.90;;;0.90;99.90;;;;;;5004314;28;20042;-79
2024/01/12 01:26:41;;;;;;;1999.90;999.90;;;0.90;99.90;;;;;;5008363;28;20549;-80
2024/01/12 01:29:06;;;;;;;1999.90;999.90;;;0.90;99.90;;;;;;4999582;28;20160;-80
2024/01/12 01:31:32;;;;;;;1999.90;999.90;;;1.00;99.90;;;;;;4992406;28;20097;-81
2024/01/12 01:33:58;;;;;;;1999.90;999.90;;;1.00;99.90;;;;;;4993447;28;20042;-80
2024/01/12 01:36:23;;;;;;;1999.90;999.90;;;1.00;99.90;;;;;;5008760;28;20042;-79
2024/01/12 01:38:49;;;;;;;1999.90;999.90;;;1.00;99.90;;;;;;5010225;28;20269;-79
2024/01/12 01:41:17;;;;;;;1999.90;999.90;;;1.00;99.90;;;;;;5012976;28;20064;-79
2024/01/12 01:43:43;;;;;;;1999.90;999.90;;;1.00;99.90;;;;;;4992958;28;20120;-79
2024/01/12 01:46:09;;;;;;;1999.90;999.90;;;1.10;99.90;;;;;;4988681;28;20034;-80
2024/01/12 01:48:35;;;;;;;1999.90;999.90;;;1.30;99.90;;;;;;4986328;28;20030;-80
2024/01/12 01:51:02;;;;;;;1999.90;999.90;;;1.60;99.90;;;;;;4995299;28;20042;-79
2024/01/12 01:53:28;;;;;;;1999.90;999.90;;;1.20;99.90;;;;;;4992886;28;20448;-79
2024/01/12 01:55:54;;;;;;;1999.90;999.90;;;1.20;99.90;;;;;;5002300;28;20046;-79
2024/01/12 01:58:20;;;;;;;1999.90;999.90;;;2.00;99.90;;;;;;4993454;28;20045;-82
2024/01/12 02:00:48;;;;;;;1999.90;999.90;;;1.20;99.90;;;;;;4991471;28;20047;-81
2024/01/12 02:03:15;;;;;;;1999.90;999.90;;;1.20;99.90;;;;;;5012856;28;20038;-82
2024/01/12 02:05:42;;;;;;;1999.90;999.90;;;1.30;99.90;;;;;;4988562;28;20112;-81
2024/01/12 02:08:08;;;;;;;1999.90;999.90;;;1.30;99.90;;;;;;5013228;28;20044;-82
2024/01/12 02:10:33;;;;;;;1999.90;999.90;;;1.30;99.90;;;;;;4991263;28;20038;-82
2024/01/12 02:13:03;;;;;;;1999.90;999.90;;;1.30;99.90;;;;;;5016977;28;20049;-81
2024/01/12 02:15:29;;;;;;;1999.90;999.90;;;1.30;99.90;;;;;;4996918;28;20030;-81
2024/01/12 02:17:55;;;;;;;1999.90;999.90;;;1.40;99.90;;;;;;5013219;28;20043;-83
2024/01/12 02:20:20;;;;;;;1999.90;999.90;;;1.40;99.90;;;;;;5004097;28;20529;-82
2024/01/12 02:22:46;;;;;;;1999.90;999.90;;;1.40;99.90;;;;;;5005511;28;20506;-82
2024/01/12 02:25:15;;;;;;;1999.90;999.90;;;1.40;99.90;;;;;;5014744;28;20089;-82
2024/01/12 02:27:40;;;;;;;1999.90;999.90;;;1.40;99.90;;;;;;5023191;28;20054;-82
2024/01/12 02:30:07;;;;;;;1999.90;999.90;;;1.40;99.90;;;;;;5029285;28;20045;-82
2024/01/12 02:32:32;;;;;;;1999.90;999.90;;;1.40;99.90;;;;;;4998876;28;20062;-82
2024/01/12 02:34:58;;;;;;;1999.90;999.90;;;1.40;99.90;;;;;;5009114;28;20073;-82
2024/01/12 02:37:23;;;;;;;1999.90;999.90;;;2.50;99.90;;;;;;5004653;28;20045;-81
2024/01/12 02:39:53;;;;;;;1999.90;999.90;;;1.20;99.90;;;;;;5003433;28;20553;-81
2024/01/12 02:42:19;;;;;;;1999.90;999.90;;;1.30;99.90;;;;;;5011607;28;20562;-81
2024/01/12 02:44:44;;;;;;;1999.90;999.90;;;1.40;99.90;;;;;;5004056;28;20041;-82
2024/01/12 02:47:19;;;;;;;1999.90;999.90;;;1.40;99.90;;;;;;5007766;28;20054;-81
2024/01/12 02:49:46;;;;;;;1999.90;999.90;;;1.40;99.90;;;;;;5012760;28;20038;-82
2024/01/12 02:52:13;;;;;;;1999.90;999.90;;;1.40;99.90;;;;;;4992523;28;20042;-83
2024/01/12 02:54:40;;;;;;;1999.90;999.90;;;1.40;99.90;;;;;;5005134;28;20522;-82
2024/01/12 02:57:05;;;;;;;1999.90;999.90;;;1.40;99.90;;;;;;4991883;28;20038;-80
2024/01/12 02:59:31;;;;;;;1999.90;999.90;;;1.40;99.90;;;;;;5005323;28;20033;-79
2024/01/12 03:01:57;;;;;;;1999.90;999.90;;;1.40;99.90;;;;;;5014362;28;20033;-79
2024/01/12 03:04:22;;;;;;;1999.90;999.90;;;1.40;99.90;;;;;;4989657;28;20038;-79
2024/01/12 03:06:48;;;;;;;1999.90;999.90;;;1.40;99.90;;;;;;4999904;28;20042;-79
2024/01/12 03:09:14;;;;;;;1999.90;999.90;;;1.40;99.90;;;;;;5011650;28;20383;-79
2024/01/12 03:11:39;;;;;;;1999.90;999.90;;;1.40;99.90;;;;;;5003705;28;20038;-79
2024/01/12 03:14:05;;;;;;;1999.90;999.90;;;1.40;99.90;;;;;;5007601;28;20042;-79
2024/01/12 03:16:33;;;;;;;1999.90;999.90;;;1.40;99.90;;;;;;5004875;28;20113;-80
2024/01/12 03:18:59;;;;;;;1999.90;999.90;;;1.40;99.90;;;;;;5007618;28;20034;-79
2024/01/12 03:21:24;;;;;;;1999.90;999.90;;;1.30;99.90;;;;;;4998734;28;20515;-79
2024/01/12 03:23:50;;;;;;;1999.90;999.90;;;1.20;99.90;;;;;;4986270;28;20042;-79
2024/01/12 03:26:16;;;;;;;1999.90;999.90;;;1.10;99.90;;;;;;4990249;28;20081;-79
2024/01/12 03:28:42;;;;;;;1999.90;999.90;;;1.00;99.90;;;;;;5006312;28;20034;-79
2024/01/12 03:31:07;;;;;;;1999.90;999.90;;;0.90;99.90;;;;;;5001416;28;20034;-79
2024/01/12 03:33:33;;;;;;;1999.90;999.90;;;0.80;99.90;;;;;;5004538;28;20045;-79
2024/01/12 03:36:00;;;;;;;1999.90;999.90;;;0.70;99.90;;;;;;5005823;28;20037;-79
2024/01/12 03:38:25;;;;;;;1999.90;999.90;;;1.10;99.90;;;;;;4990682;28;20570;-79
2024/01/12 03:40:51;;;;;;;1999.90;999.90;;;0.60;99.90;;;;;;5003306;28;20065;-79
2024/01/12 03:43:17;;;;;;;1999.90;999.90;;;0.50;99.90;;;;;;4989406;28;20169;-79
2024/01/12 03:45:42;;;;;;;1999.90;999.90;;;0.50;99.90;;;;;;5004037;28;20487;-79
2024/01/12 03:48:08;;;;;;;1999.90;999.90;;;0.40;99.90;;;;;;5002246;28;20038;-79
2024/01/12 03:50:33;;;;;;;1999.90;999.90;;;0.70;99.90;;;;;;5008955;28;20507;-79
2024/01/12 03:52:59;;;;;;;1999.90;999.90;;;0.40;99.90;;;;;;5007059;28;20065;-80
2024/01/12 03:55:24;;;;;;;1999.90;999.90;;;0.40;99.90;;;;;;5002420;28;20042;-79
2024/01/12 03:57:50;;;;;;;1999.90;999.90;;;0.50;99.90;;;;;;5006302;28;20048;-79
2024/01/12 04:00:16;;;;;;;1999.90;999.90;;;0.60;99.90;;;;;;5002806;28;20043;-79
2024/01/12 04:02:41;;;;;;;1999.90;999.90;;;0.60;99.90;;;;;;5006639;28;20041;-79
2024/01/12 04:05:07;;;;;;;1999.90;999.90;;;0.60;99.90;;;;;;4985881;28;20037;-79
2024/01/12 04:07:33;;;;;;;1999.90;999.90;;;0.70;99.90;;;;;;5004445;28;20040;-79
2024/01/12 04:09:58;;;;;;;1999.90;999.90;;;0.70;99.90;;;;;;5004850;28;20335;-79
2024/01/12 04:12:24;;;;;;;1999.90;999.90;;;0.80;99.90;;;;;;5001089;28;20084;-79
2024/01/12 04:14:50;;;;;;;1999.90;999.90;;;0.80;99.90;;;;;;5004112;28;20388;-79
2024/01/12 04:17:16;;;;;;;1999.90;999.90;;;0.90;99.90;;;;;;5003656;28;20046;-79
2024/01/12 04:19:41;;;;;;;1999.90;999.90;;;1.00;99.90;;;;;;5001382;28;20034;-79
2024/01/12 04:22:07;;;;;;;1999.90;999.90;;;1.00;99.90;;;;;;5005458;28;20050;-79
2024/01/12 04:24:32;;;;;;;1999.90;999.90;;;1.10;99.90;;;;;;5003844;28;20050;-79
2024/01/12 04:26:58;;;;;;;1999.90;999.90;;;1.20;99.90;;;;;;5006145;28;20034;-79
2024/01/12 04:29:24;;;;;;;1999.90;999.90;;;1.20;99.90;;;;;;5002202;28;20081;-80
2024/01/12 04:31:49;;;;;;;1999.90;999.90;;;1.20;99.90;;;;;;5005746;28;20301;-79
2024/01/12 04:34:18;;;;;;;1999.90;999.90;;;1.30;99.90;;;;;;5008126;28;20222;-79
2024/01/12 04:36:44;;;;;;;1999.90;999.90;;;1.30;99.90;;;;;;5002025;28;20042;-80
2024/01/12 04:39:09;;;;;;;1999.90;999.90;;;1.40;99.90;;;;;;5005291;28;20088;-79
2024/01/12 04:41:35;;;;;;;1999.90;999.90;;;1.40;99.90;;;;;;4993770;28;20161;-79
2024/01/12 04:44:01;;;;;;;1999.90;999.90;;;1.50;99.90;;;;;;4988922;28;20252;-79
2024/01/12 04:46:28;;;;;;;1999.90;999.90;;;1.80;99.90;;;;;;5004708;28;20064;-79
2024/01/12 04:48:54;;;;;;;1999.90;999.90;;;1.60;99.90;;;;;;5005144;28;20084;-79
2024/01/12 04:51:19;;;;;;;1999.90;999.90;;;1.60;99.90;;;;;;4982515;28;20111;-78
2024/01/12 04:53:45;;;;;;;1999.90;999.90;;;1.70;99.90;;;;;;5004772;28;20030;-79
2024/01/12 04:56:10;;;;;;;1999.90;999.90;;;1.70;99.90;;;;;;5001526;28;20041;-80
2024/01/12 04:58:36;;;;;;;1999.90;999.90;;;2.30;99.90;;;;;;4987984;28;20057;-79
2024/01/12 05:01:01;;;;;;;1999.90;999.90;;;1.80;99.90;;;;;;5001985;28;20450;-79
2024/01/12 05:03:27;;;;;;;1999.90;999.90;;;2.60;99.90;;;;;;5002816;28;20046;-80
2024/01/12 05:05:53;;;;;;;1999.90;999.90;;;1.70;99.90;;;;;;4984241;28;20578;-80
2024/01/12 05:08:18;;;;;;;1999.90;999.90;;;1.70;99.90;;;;;;5007603;28;20037;-79
2024/01/12 05:10:44;;;;;;;1999.90;999.90;;;1.70;99.90;;;;;;4985842;28;20038;-79
2024/01/12 05:13:09;;;;;;;1999.90;999.90;;;2.20;99.90;;;;;;4984405;28;20110;-79
2024/01/12 05:15:35;;;;;;;1999.90;999.90;;;2.20;99.90;;;;;;5010439;28;20498;-80
2024/01/12 05:18:01;;;;;;;1999.90;999.90;;;1.70;99.90;;;;;;5000078;28;20034;-80
2024/01/12 05:20:27;;;;;;;1999.90;999.90;;;1.60;99.90;;;;;;5003639;28;20065;-79
2024/01/12 05:22:52;;;;;;;1999.90;999.90;;;1.60;99.90;;;;;;5003784;28;20048;-79
2024/01/12 05:25:18;;;;;;;1999.90;999.90;;;1.60;99.90;;;;;;5000917;28;20030;-80
2024/01/12 05:27:44;;;;;;;1999.90;999.90;;;1.60;99.90;;;;;;5002030;28;20185;-79
2024/01/12 05:30:10;;;;;;;1999.90;999.90;;;1.60;99.90;;;;;;5004862;28;20070;-81
2024/01/12 05:32:38;;;;;;;1999.90;999.90;;;1.60;99.90;;;;;;5002082;28;20053;-81
2024/01/12 05:35:09;;;;;;;1999.90;999.90;;;1.60;99.90;;;;;;4995550;28;20101;-81
2024/01/12 05:37:34;;;;;;;1999.90;999.90;;;1.60;99.90;;;;;;4992199;28;20076;-82
2024/01/12 05:40:00;;;;;;;1999.90;999.90;;;1.50;99.90;;;;;;5004756;28;20138;-82
2024/01/12 05:42:25;;;;;;;1999.90;999.90;;;1.50;99.90;;;;;;5015094;28;20073;-81
2024/01/12 05:44:51;;;;;;;1999.90;999.90;;;1.40;99.90;;;;;;5005759;28;20042;-80
2024/01/12 05:47:17;;;;;;;1999.90;999.90;;;1.40;99.90;;;;;;5008991;28;20041;-81
2024/01/12 05:49:43;;;;;;;1999.90;999.90;;;1.30;99.90;;;;;;4996522;28;20042;-81
2024/01/12 05:52:09;;;;;;;1999.90;999.90;;;1.30;99.90;;;;;;5027053;28;20042;-82
2024/01/12 05:54:37;;;;;;;1999.90;999.90;;;1.30;99.90;;;;;;4995994;28;20107;-81
2024/01/12 05:57:04;;;;;;;1999.90;999.90;;;1.30;99.90;;;;;;5007223;28;20046;-81
2024/01/12 05:59:32;;;;;;;1999.90;999.90;;;1.30;99.90;;;;;;5013566;28;20058;-81
2024/01/12 06:02:01;;;;;;;1999.90;999.90;;;1.30;99.90;;;;;;4987371;28;20042;-81
2024/01/12 06:04:27;;;;;;;1999.90;999.90;;;1.30;99.90;;;;;;4999909;28;20038;-81
2024/01/12 06:06:54;;;;;;;1999.90;999.90;;;1.30;99.90;;;;;;5012142;28;20286;-81
2024/01/12 06:09:21;;;;;;;1999.90;999.90;;;1.30;99.90;;;;;;5011654;28;20041;-82
2024/01/12 06:11:50;;;;;;;1999.90;999.90;;;2.20;99.90;;;;;;4998536;28;20045;-81
2024/01/12 06:14:18;;;;;;;1999.90;999.90;;;1.90;99.90;;;;;;5010375;28;20042;-81
2024/01/12 06:16:45;;;;;;;1999.90;999.90;;;2.20;99.90;;;;;;5004942;28;20062;-80
2024/01/12 06:19:14;;;;;;;1999.90;999.90;;;1.40;99.90;;;;;;5002812;28;20038;-81
2024/01/12 06:21:43;;;;;;;1999.90;999.90;;;2.50;99.90;;;;;;5015097;28;20065;-81
2024/01/12 06:24:11;;;;;;;1999.90;999.90;;;2.70;99.90;;;;;;4994925;28;20045;-81
2024/01/12 06:26:37;;;;;;;1999.90;999.90;;;1.50;99.90;;;;;;4991323;28;20126;-82
2024/01/12 06:29:03;;;;;;;1999.90;999.90;;;1.50;99.90;;;;;;5028324;28;20045;-81
2024/01/12 06:31:31;;;;;;;1999.90;999.90;;;2.00;99.90;;;;;;5014024;28;20062;-81
2024/01/12 06:33:57;;;;;;;1999.90;999.90;;;1.50;99.90;;;;;;5009358;28;20062;-81
2024/01/12 06:36:23;;;;;;;1999.90;999.90;;;2.40;99.90;;;;;;5014813;28;20430;-80
2024/01/12 06:38:48;;;;;;;1999.90;999.90;;;1.60;99.90;;;;;;4991159;28;20062;-80
2024/01/12 06:41:14;;;;;;;1999.90;999.90;;;1.60;99.90;;;;;;5007313;28;20042;-80
2024/01/12 06:43:40;;;;;;;1999.90;999.90;;;1.60;99.90;;;;;;5023017;28;20041;-80
2024/01/12 06:46:06;;;;;;;1999.90;999.90;;;1.60;99.90;;;;;;5006976;28;20517;-80
2024/01/12 06:48:31;;;;;;;1999.90;999.90;;;1.60;99.90;;;;;;4988443;28;20046;-80
2024/01/12 06:50:57;;;;;;;1999.90;999.90;;;1.60;99.90;;;;;;4992995;28;20096;-80
2024/01/12 06:53:22;;;;;;;1999.90;999.90;;;1.70;99.90;;;;;;4991728;28;20034;-80
2024/01/12 06:55:48;;;;;;;1999.90;999.90;;;1.70;99.90;;;;;;5024751;23;20486;-80
2024/01/12 06:58:14;;;;;;;1999.90;999.90;;;2.80;99.90;;;;;;5068753;28;20408;-78
2024/01/12 07:00:39;;;;;;;1999.90;999.90;;;3.00;99.90;;;;;;5048430;28;20468;-80
2024/01/12 07:03:06;;;;;;;1999.90;999.90;;;1.70;99.90;;;;;;5050126;28;20039;-80
2024/01/12 07:05:32;;;;;;;1999.90;999.90;;;1.70;99.90;;;;;;5052868;28;20033;-80
2024/01/12 07:07:57;;;;;;;1999.90;999.90;;;1.70;99.90;;;;;;5067134;28;20037;-79
2024/01/12 07:10:23;;;;;;;1999.90;999.90;;;1.80;99.90;;;;;;5068108;28;20075;-82
2024/01/12 07:12:51;;;;;;;1999.90;999.90;;;1.80;99.90;;;;;;5050585;28;20049;-82
2024/01/12 07:15:18;;;;;;;1999.90;999.90;;;1.80;99.90;;;;;;5065904;28;20041;-82
2024/01/12 07:17:43;;;;;;;1999.90;999.90;;;1.80;99.90;;;;;;5050534;28;20040;-82
2024/01/12 07:20:10;;;;;;;1999.90;999.90;;;1.80;99.90;;;;;;5046681;28;20430;-82
2024/01/12 07:22:37;;;;;;;1999.90;999.90;;;1.80;99.90;;;;;;5068578;28;20036;-81
2024/01/12 07:25:02;;;;;;;1999.90;999.90;;;1.80;99.90;;;;;;5052645;28;20041;-80
2024/01/12 07:27:28;;;;;;;1999.90;999.90;;;1.80;99.90;;;;;;5046042;28;20063;-80
2024/01/12 07:29:54;;;;;;;1999.90;999.90;;;1.80;99.90;;;;;;5064605;28;20094;-80
2024/01/12 07:32:19;;;;;;;1999.90;999.90;;;1.80;99.90;;;;;;5063050;28;20057;-80
2024/01/12 07:34:45;;;;;;;1999.90;999.90;;;1.80;99.90;;;;;;5065990;28;20037;-79
2024/01/12 07:37:10;;;;;;;1999.90;999.90;;;1.80;99.90;;;;;;5065228;28;20037;-79
2024/01/12 07:39:36;;;;;;;1999.90;999.90;;;1.90;99.90;;;;;;5061166;28;20554;-80
2024/01/12 07:42:02;;;;;;;1999.90;999.90;;;2.70;99.90;;;;;;5050645;28;20029;-80
2024/01/12 07:44:27;;;;;;;1999.90;999.90;;;1.90;99.90;;;;;;5064303;28;20047;-79
2024/01/12 07:46:53;;;;;;;1999.90;999.90;;;1.80;99.90;;;;;;5065019;28;20036;-80
2024/01/12 07:49:18;;;;;;;1999.90;999.90;;;1.80;99.90;;;;;;5049507;28;20480;-80
2024/01/12 07:51:45;;;;;;;1999.90;999.90;;;1.90;99.90;;;;;;5066942;28;20105;-80
2024/01/12 07:54:10;;;;;;;1999.90;999.90;;;1.90;99.90;;;;;;5063772;28;20047;-79
2024/01/12 07:56:36;;;;;;;1999.90;999.90;;;1.90;99.90;;;;;;5047685;28;20056;-78
2024/01/12 07:59:02;;;;;;;1999.90;999.90;;;1.90;99.90;;;;;;5047708;28;20068;-79
2024/01/12 08:01:30;;;;;;;1999.90;999.90;;;1.90;99.90;;;;;;5047652;28;20039;-78
2024/01/12 08:03:56;;;;;;;1999.90;999.90;;;1.90;99.90;;;;;;5048476;28;20040;-79
2024/01/12 08:06:21;;;;;;;1999.90;999.90;;;2.50;99.90;;;;;;5062300;28;20053;-79
2024/01/12 08:08:47;;;;;;;1999.90;999.90;;;1.90;99.90;;;;;;5070455;28;20139;-80
2024/01/12 08:11:12;;;;;;;1999.90;999.90;;;1.90;99.90;;;;;;5060916;28;20044;-80
2024/01/12 08:13:38;;;;;;;1999.90;999.90;;;2.00;99.90;;;;;;5063060;28;20075;-79
2024/01/12 08:16:04;;;;;;;1999.90;999.90;;;2.00;99.90;;;;;;5047633;28;20059;-79
2024/01/12 08:18:29;;;;;;;1999.90;999.90;;;2.00;99.90;;;;;;5065633;28;20610;-79
2024/01/12 08:20:56;;;;;;;1999.90;999.90;;;2.00;99.90;;;;;;5065867;28;20029;-80
2024/01/12 08:23:25;;;;;;;1999.90;999.90;;;2.10;99.90;;;;;;5048696;28;20047;-79
2024/01/12 08:25:50;;;;;;;1999.90;999.90;;;2.10;99.90;;;;;;5067695;28;20048;-80
2024/01/12 08:28:16;;;;;;;1999.90;999.90;;;2.10;99.90;;;;;;5045482;28;20036;-79
2024/01/12 08:30:41;;;;;;;1999.90;999.90;;;2.10;99.90;;;;;;5064126;28;20033;-79
2024/01/12 08:33:07;;;;;;;1999.90;999.90;;;2.10;99.90;;;;;;5051129;28;20035;-80
2024/01/12 08:35:34;;;;;;;1999.90;999.90;;;2.10;99.90;;;;;;5057592;28;20055;-80
2024/01/12 08:37:59;;;;;;;1999.90;999.90;;;2.10;99.90;;;;;;5048471;28;20032;-81
2024/01/12 08:40:25;;;;;;;1999.90;999.90;;;2.80;99.90;;;;;;5054533;28;20037;-80
2024/01/12 08:42:51;;;;;;;1999.90;999.90;;;2.20;99.90;;;;;;5067770;28;20037;-80
2024/01/12 08:45:17;;;;;;;1999.90;999.90;;;2.20;99.90;;;;;;5049268;28;20040;-81
2024/01/12 08:47:43;;;;;;;1999.90;999.90;;;2.60;99.90;;;;;;5062488;28;20094;-81
2024/01/12 08:50:09;;;;;;;1999.90;999.90;;;2.50;99.90;;;;;;5049371;28;20090;-81
2024/01/12 08:52:34;;;;;;;1999.90;999.90;;;2.30;99.90;;;;;;5048747;28;20033;-80
2024/01/12 08:55:00;;;;;;;1999.90;999.90;;;2.30;99.90;;;;;;5046487;28;20253;-81
2024/01/12 08:57:25;;;;;;;1999.90;999.90;;;2.30;99.90;;;;;;5043390;28;20079;-80
2024/01/12 08:59:51;;;;;;;1999.90;999.90;;;2.40;99.90;;;;;;5052047;28;20100;-80
2024/01/12 09:02:17;;;;;;;1999.90;999.90;;;2.40;99.90;;;;;;5051419;28;20116;-81
2024/01/12 09:04:43;;;;;;;1999.90;999.90;;;2.40;99.90;;;;;;5064166;28;20051;-80
2024/01/12 09:07:08;;;;;;;1999.90;999.90;;;2.50;99.90;;;;;;5046927;28;20037;-80
2024/01/12 09:09:35;;;;;;;1999.90;999.90;;;2.50;99.90;;;;;;5067708;28;20036;-80
2024/01/12 09:12:00;;;;;;;1999.90;999.90;;;3.60;99.90;;;;;;5074337;28;20115;-82
2024/01/12 09:14:27;;;;;;;1999.90;999.90;;;2.50;99.90;;;;;;5064689;28;20033;-82
2024/01/12 09:16:53;;;;;;;1999.90;999.90;;;2.60;99.90;;;;;;5068276;28;20038;-82
2024/01/12 09:19:24;;;;;;;1999.90;999.90;;;2.60;99.90;;;;;;5060593;28;20037;-82
2024/01/12 09:21:50;;;;;;;1999.90;999.90;;;2.60;99.90;;;;;;5044351;28;20551;-82
2024/01/12 09:24:15;;;;;;;1999.90;999.90;;;3.70;99.90;;;;;;5060758;28;20215;-82
2024/01/12 09:26:41;;;;;;;1999.90;999.90;;;3.60;99.90;;;;;;5054955;28;20052;-81
2024/01/12 09:29:07;;;;;;;1999.90;999.90;;;2.70;99.90;;;;;;5042510;28;20062;-81
2024/01/12 09:31:34;;;;;;;1999.90;999.90;;;2.70;99.90;;;;;;5055580;28;20043;-81
2024/01/12 09:33:59;;;;;;;1999.90;999.90;;;2.80;99.90;;;;;;5045692;28;20036;-81
2024/01/12 09:36:25;;;;;;;1999.90;999.90;;;2.80;99.90;;;;;;5060572;28;20048;-81
2024/01/12 09:38:52;;;;;;;1999.90;999.90;;;2.80;99.90;;;;;;5031008;28;20401;-82
2024/01/12 09:41:28;;;;;;;1999.90;999.90;;;2.90;99.90;;;;;;5060134;28;20075;-82
2024/01/12 09:43:58;;;;;;;1999.90;999.90;;;2.90;99.90;;;;;;5064060;28;20036;-82
2024/01/12 09:46:28;;;;;;;1999.90;999.90;;;3.00;99.90;;;;;;5058645;28;20040;-82
2024/01/12 09:48:55;;;;;;;1999.90;999.90;;;3.00;99.90;;;;;;5060674;28;20043;-82
2024/01/12 09:51:21;;;;;;;1999.90;999.90;;;3.10;99.90;;;;;;5047676;28;20041;-82
2024/01/12 09:53:47;;;;;;;1999.90;999.90;;;3.80;99.90;;;;;;5063531;28;20107;-82
2024/01/12 09:56:14;;;;;;;1999.90;999.90;;;3.10;99.90;;;;;;5050169;28;20064;-83
2024/01/12 09:58:40;;;;;;;1999.90;999.90;;;3.20;99.90;;;;;;5051726;28;20051;-82
2024/01/12 10:01:08;;;;;;;1999.90;999.90;;;3.20;99.90;;;;;;5052006;28;20142;-82
2024/01/12 10:03:36;;;;;;;1999.90;999.90;;;3.80;99.90;;;;;;5045606;28;20040;-82
2024/01/12 10:06:03;;;;;;;1999.90;999.90;;;3.30;99.90;;;;;;5063566;28;20045;-82
2024/01/12 10:08:40;;;;;;;1999.90;999.90;;;3.30;99.90;;;;;;5058530;28;20069;-81
2024/01/12 10:11:09;;;;;;;1999.90;999.90;;;3.70;99.90;;;;;;5067333;28;20131;-81
2024/01/12 10:13:34;;;;;;;1999.90;999.90;;;3.40;99.90;;;;;;5042706;28;20033;-82
2024/01/12 10:16:01;;;;;;;1999.90;999.90;;;3.50;99.90;;;;;;5045186;28;20051;-83
2024/01/12 10:18:26;;;;;;;1999.90;999.90;;;4.40;99.90;;;;;;5070768;28;20051;-81
2024/01/12 10:20:52;;;;;;;1999.90;999.90;;;3.70;99.90;;;;;;5069725;28;20100;-81
2024/01/12 10:23:21;;;;;;;1999.90;999.90;;;3.80;99.90;;;;;;5069986;28;20055;-81
2024/01/12 10:25:57;;;;;;;1999.90;999.90;;;3.90;99.90;;;;;;5048394;28;20064;-82
2024/01/12 10:28:23;;;;;;;1999.90;999.90;;;3.90;99.90;;;;;;5054474;28;20033;-82
2024/01/12 10:30:48;;;;;;;1999.90;999.90;;;4.00;99.90;;;;;;5050638;28;20048;-83
2024/01/12 10:33:17;;;;;;;1999.90;999.90;;;4.10;99.90;;;;;;5067973;28;20229;-82
2024/01/12 10:36:00;;;;;;;1999.90;999.90;;;4.10;99.90;;;;;;5072828;28;20127;-82
2024/01/12 10:38:30;;;;;;;1999.90;999.90;;;4.80;99.90;;;;;;5055666;28;20037;-82
2024/01/12 10:40:59;;;;;;;1999.90;999.90;;;4.20;99.90;;;;;;5055126;28;20210;-82
2024/01/12 10:43:27;;;;;;;1999.90;999.90;;;5.00;99.90;;;;;;5067995;28;20058;-82
2024/01/12 10:45:58;;;;;;;1999.90;999.90;;;5.30;99.90;;;;;;5059702;28;20045;-82
2024/01/12 10:48:28;;;;;;;1999.90;999.90;;;5.60;99.90;;;;;;5055238;28;20036;-81
2024/01/12 10:51:02;;;;;;;1999.90;999.90;;;5.60;99.90;;;;;;5052709;28;20043;-82
2024/01/12 10:53:36;;;;;;;;;;;4.90;99.90;;;;;;5074527;28;20040;-82
2024/01/12 10:56:03;;;;;;;1999.90;999.90;;;4.40;99.90;;;;;;5070975;28;19936;-81
2024/01/12 10:58:29;;;;;;;1999.90;999.90;;;4.40;99.90;;;;;;5049698;28;20497;-80
2024/01/12 11:00:55;;;;;;;1999.90;999.90;;;4.40;99.90;;;;;;5066510;28;20083;-81
2024/01/12 11:03:21;;;;;;;1999.90;999.90;;;4.40;99.90;;;;;;5056287;28;20069;-81
2024/01/12 11:05:50;;;;;;;1999.90;999.90;;;4.50;99.90;;;;;;5047032;28;20133;-79
2024/01/12 11:08:19;;;;;;;1999.90;999.90;;;4.50;99.90;;;;;;5071955;28;20116;-81
2024/01/12 11:10:54;;;;;;;1999.90;999.90;;;4.60;99.90;;;;;;5074024;28;20337;-84
2024/01/12 11:13:21;;;;;;;1999.90;999.90;;;4.60;99.90;;;;;;5051329;28;20037;-82
2024/01/12 11:15:50;;;;;;;1999.90;999.90;;;5.80;99.90;;;;;;5053366;28;20040;-81
2024/01/12 11:18:17;;;;;;;1999.90;999.90;;;4.70;99.90;;;;;;5047800;28;20094;-81
2024/01/12 11:20:45;;;;;;;1999.90;999.90;;;4.70;99.90;;;;;;5047331;28;20037;-81
2024/01/12 11:23:11;;;;;;;1999.90;999.90;;;5.40;99.90;;;;;;5069741;28;20056;-80
2024/01/12 11:25:37;;;;;;;1999.90;999.90;;;6.00;99.90;;;;;;5062043;28;20098;-81
2024/01/12 11:28:03;;;;;;;1999.90;999.90;;;6.00;99.90;;;;;;5062738;28;20033;-80
2024/01/12 11:30:29;;;;;;;1999.90;999.90;;;4.80;99.90;;;;;;5066684;28;20041;-79
2024/01/12 11:33:04;;;;;;;1999.90;999.90;;;4.80;99.90;;;;;;5066325;28;20410;-80
2024/01/12 11:35:30;;;;;;;1999.90;999.90;;;4.90;99.90;;;;;;5065650;28;20037;-79
2024/01/12 11:38:02;;;;;;;1999.90;999.90;;;4.90;99.90;;;;;;5048320;28;20041;-80
2024/01/12 11:40:28;;;;;;;1999.90;999.90;;;4.90;99.90;;;;;;5061739;28;20045;-80
2024/01/12 11:42:54;;;;;;;1999.90;999.90;;;5.00;99.90;;;;;;5064981;28;20033;-79
2024/01/12 11:45:20;;;;;;;1999.90;999.90;;;5.00;99.90;;;;;;5069368;28;20071;-80
2024/01/12 11:47:46;;;;;;;1999.90;999.90;;;5.00;99.90;;;;;;5049985;28;20112;-79
2024/01/12 11:50:14;;;;;;;1999.90;999.90;;;5.30;99.90;;;;;;5071925;28;20044;-80
2024/01/12 11:52:40;;;;;;;1999.90;999.90;;;5.00;99.90;;;;;;5045103;28;20095;-80
2024/01/12 11:55:08;;;;;;;1999.90;999.90;;;5.00;99.90;;;;;;5065532;28;20029;-80
2024/01/12 11:57:35;;;;;;;1999.90;999.90;;;5.00;99.90;;;;;;5064262;28;20061;-81
2024/01/12 12:00:01;;;;;;;1999.90;999.90;;;4.90;99.90;;;;;;5044591;28;20036;-82
2024/01/12 12:02:27;;;;;;;1999.90;999.90;;;5.00;99.90;;;;;;5051717;28;20031;-81
2024/01/12 12:04:54;;;;;;;1999.90;999.90;;;5.00;99.90;;;;;;5053880;28;20040;-82